Time;durP1;ratioP1;P1;durP2;ratioP2;P2;SDS_P1;SDS_P2;PMS_P1;PMS_P2;Temp;Humidity;BMP_temperature;BMP_pressure;BME280_temperature;BME280_humidity;BME280_pressure;Samples;Min_cycle;Max_cycle;Signal;HPM_P1;HPM_P2
2022/07/01 00:01:49;;;;;;;0.00;0.00;;;22.80;99.90;;;;;;4971741;28;20522;-74
2022/07/01 00:04:17;;;;;;;0.00;0.00;;;22.90;99.90;;;;;;4962066;28;20846;-74
2022/07/01 00:06:46;;;;;;;0.00;0.00;;;23.00;99.90;;;;;;4961853;28;20486;-72
2022/07/01 00:09:14;;;;;;;0.00;0.00;;;23.10;99.90;;;;;;4961753;28;20888;-73
2022/07/01 00:11:42;;;;;;;0.00;0.00;;;23.20;99.90;;;;;;4962048;28;20452;-73
2022/07/01 00:14:10;;;;;;;0.00;0.00;;;23.20;99.90;;;;;;4967086;28;20478;-73
2022/07/01 00:16:37;;;;;;;0.00;0.00;;;23.30;99.90;;;;;;4980991;28;20860;-74
2022/07/01 00:19:05;;;;;;;0.00;0.00;;;23.30;99.90;;;;;;4981181;28;20447;-73
2022/07/01 00:21:34;;;;;;;0.00;0.00;;;23.30;99.90;;;;;;4980771;28;20475;-73
2022/07/01 00:24:03;;;;;;;0.00;0.00;;;23.30;99.90;;;;;;4981422;28;20460;-73
2022/07/01 00:26:31;;;;;;;0.00;0.00;;;23.30;99.90;;;;;;4980808;28;20561;-74
2022/07/01 00:28:59;;;;;;;0.00;0.00;;;23.20;99.90;;;;;;4981414;28;20515;-73
2022/07/01 00:31:26;;;;;;;0.00;0.00;;;23.10;99.90;;;;;;4980956;28;20536;-73
2022/07/01 00:33:54;;;;;;;0.00;0.00;;;23.10;99.90;;;;;;4980861;28;21055;-74
2022/07/01 00:36:22;;;;;;;0.00;0.00;;;23.00;99.90;;;;;;4981428;28;20477;-73
2022/07/01 00:38:56;;;;;;;0.00;0.00;;;22.90;99.90;;;;;;4981093;28;20924;-74
2022/07/01 00:41:26;;;;;;;0.00;0.00;;;22.80;99.90;;;;;;4980682;28;20436;-74
2022/07/01 00:43:54;;;;;;;0.00;0.00;;;22.80;99.90;;;;;;4981395;28;21127;-74
2022/07/01 00:46:25;;;;;;;0.00;0.00;;;22.60;99.90;;;;;;4981722;28;20492;-76
2022/07/01 00:48:57;;;;;;;0.00;0.00;;;22.60;99.90;;;;;;4982288;28;20514;-77
2022/07/01 00:51:25;;;;;;;0.00;0.00;;;22.40;99.90;;;;;;4981254;28;20503;-76
2022/07/01 00:53:53;;;;;;;0.00;0.00;;;22.30;99.90;;;;;;4981535;28;20997;-76
2022/07/01 00:56:21;;;;;;;0.00;0.00;;;22.20;99.90;;;;;;4981115;28;20553;-75
2022/07/01 00:58:50;;;;;;;0.00;0.00;;;22.00;99.90;;;;;;4981579;28;20451;-75
2022/07/01 01:01:20;;;;;;;0.00;0.00;;;21.90;99.90;;;;;;4981850;28;20443;-79
2022/07/01 01:03:48;;;;;;;0.00;0.00;;;21.70;99.90;;;;;;4983130;28;20455;-77
2022/07/01 01:06:17;;;;;;;0.00;0.00;;;21.50;99.90;;;;;;4981452;28;21090;-75
2022/07/01 01:08:46;;;;;;;0.00;0.00;;;21.30;99.90;;;;;;4980796;28;20840;-71
2022/07/01 01:11:14;;;;;;;0.00;0.00;;;21.20;99.90;;;;;;4980881;28;20478;-81
2022/07/01 01:13:42;;;;;;;0.00;0.00;;;21.10;99.90;;;;;;4972284;28;20480;-73
2022/07/01 01:16:18;;;;;;;0.00;0.00;;;21.00;99.90;;;;;;4972708;28;20455;-73
2022/07/01 01:18:46;;;;;;;0.00;0.00;;;20.90;99.90;;;;;;4970712;28;20570;-73
2022/07/01 01:21:16;;;;;;;0.00;0.00;;;20.80;99.90;;;;;;4963425;28;20458;-80
2022/07/01 01:23:44;;;;;;;0.00;0.00;;;20.80;99.90;;;;;;4963295;28;20989;-80
2022/07/01 01:26:19;;;;;;;0.00;0.00;;;20.70;99.90;;;;;;4962620;28;20444;-79
2022/07/01 01:28:47;;;;;;;0.00;0.00;;;20.70;99.90;;;;;;4963522;28;20530;-79
2022/07/01 01:31:15;;;;;;;0.00;0.00;;;20.60;99.90;;;;;;4961845;28;20475;-79
2022/07/01 01:33:43;;;;;;;0.00;0.00;;;20.50;99.90;;;;;;4963555;28;20670;-80
2022/07/01 01:36:12;;;;;;;0.00;0.00;;;20.50;99.90;;;;;;4964315;28;20926;-81
2022/07/01 01:38:41;;;;;;;0.00;0.00;;;20.50;99.90;;;;;;4964006;28;20661;-81
2022/07/01 01:41:09;;;;;;;0.00;0.00;;;20.40;99.90;;;;;;4964921;28;20455;-82
2022/07/01 01:43:37;;;;;;;0.00;0.00;;;20.30;99.90;;;;;;4963739;28;20835;-82
2022/07/01 01:46:05;;;;;;;0.00;0.00;;;20.30;99.90;;;;;;4964339;28;20456;-81
2022/07/01 01:48:32;;;;;;;0.00;0.00;;;20.20;99.90;;;;;;4963675;28;20436;-78
2022/07/01 01:51:00;;;;;;;0.00;0.00;;;20.20;99.90;;;;;;4962623;28;20798;-79
2022/07/01 01:53:28;;;;;;;0.00;0.00;;;20.20;99.90;;;;;;4963161;28;20457;-79
2022/07/01 01:55:57;;;;;;;0.00;0.00;;;20.10;99.90;;;;;;4963676;28;20455;-80
2022/07/01 01:58:26;;;;;;;0.00;0.00;;;20.10;99.90;;;;;;4966068;28;20436;-79
2022/07/01 02:00:53;;;;;;;0.00;0.00;;;20.20;99.90;;;;;;4971408;28;20694;-79
2022/07/01 02:03:21;;;;;;;0.00;0.00;;;20.20;99.90;;;;;;4970846;28;20607;-79
2022/07/01 02:05:50;;;;;;;0.00;0.00;;;20.30;99.90;;;;;;4972902;28;20441;-79
2022/07/01 02:08:17;;;;;;;0.00;0.00;;;20.30;99.90;;;;;;4971740;28;20468;-79
2022/07/01 02:10:45;;;;;;;0.00;0.00;;;20.30;99.90;;;;;;4975385;28;20483;-78
2022/07/01 02:13:15;;;;;;;0.00;0.00;;;20.40;99.90;;;;;;4971028;28;20822;-78
2022/07/01 02:15:42;;;;;;;0.00;0.00;;;20.40;99.90;;;;;;4965210;28;20660;-78
2022/07/01 02:23:33;;;;;;;0.00;0.00;;;20.40;99.90;;;;;;4945307;29;21008;-81
2022/07/01 02:26:28;;;;;;;0.00;0.00;;;20.40;99.90;;;;;;4950785;29;20455;-80
2022/07/01 02:28:58;;;;;;;0.00;0.00;;;20.40;99.90;;;;;;4944090;29;20956;-79
2022/07/01 02:31:25;;;;;;;0.00;0.00;;;20.40;99.90;;;;;;4943918;29;20480;-79
2022/07/01 02:33:53;;;;;;;0.00;0.00;;;20.50;99.90;;;;;;4942859;29;21042;-79
2022/07/01 02:36:21;;;;;;;0.00;0.00;;;20.50;99.90;;;;;;4942970;28;20475;-79
2022/07/01 02:38:49;;;;;;;0.00;0.00;;;20.60;99.90;;;;;;4944489;28;20459;-80
2022/07/01 02:41:16;;;;;;;0.00;0.00;;;20.60;99.90;;;;;;4943557;29;20470;-81
2022/07/01 02:43:44;;;;;;;0.00;0.00;;;20.70;99.90;;;;;;4944266;28;20467;-81
2022/07/01 02:46:14;;;;;;;0.00;0.00;;;20.60;99.90;;;;;;4943222;28;20552;-80
2022/07/01 02:48:42;;;;;;;0.00;0.00;;;20.60;99.90;;;;;;4943182;29;20874;-80
2022/07/01 02:51:09;;;;;;;0.00;0.00;;;20.70;99.90;;;;;;4941656;29;20634;-78
2022/07/01 02:53:37;;;;;;;0.00;0.00;;;20.60;99.90;;;;;;4942529;28;21019;-80
2022/07/01 02:56:05;;;;;;;0.00;0.00;;;20.60;99.90;;;;;;4942757;28;20529;-79
2022/07/01 02:58:33;;;;;;;0.00;0.00;;;20.70;99.90;;;;;;4947469;29;20585;-79
2022/07/01 03:01:01;;;;;;;0.00;0.00;;;20.60;99.90;;;;;;4954432;29;20700;-80
2022/07/01 03:03:30;;;;;;;0.00;0.00;;;20.50;99.90;;;;;;4950373;29;20439;-80
2022/07/01 03:05:58;;;;;;;0.00;0.00;;;20.50;99.90;;;;;;4949620;29;20978;-80
2022/07/01 03:08:26;;;;;;;0.00;0.00;;;20.50;99.90;;;;;;4946436;29;20747;-80
2022/07/01 03:10:53;;;;;;;0.00;0.00;;;20.40;99.90;;;;;;4942775;29;20488;-78
2022/07/01 03:13:21;;;;;;;0.00;0.00;;;20.40;99.90;;;;;;4942395;29;20660;-78
2022/07/01 03:15:49;;;;;;;0.00;0.00;;;20.40;99.90;;;;;;4941909;29;20452;-78
2022/07/01 03:18:17;;;;;;;0.00;0.00;;;20.40;99.90;;;;;;4942163;28;21008;-78
2022/07/01 03:20:48;;;;;;;0.00;0.00;;;20.50;99.90;;;;;;4940902;29;20450;-77
2022/07/01 03:23:16;;;;;;;0.00;0.00;;;20.50;99.90;;;;;;4939734;29;20503;-75
2022/07/01 03:25:44;;;;;;;0.00;0.00;;;20.60;99.90;;;;;;4940250;29;20459;-75
2022/07/01 03:28:12;;;;;;;0.00;0.00;;;20.60;99.90;;;;;;4939827;29;20971;-76
2022/07/01 03:30:40;;;;;;;0.00;0.00;;;20.60;99.90;;;;;;4940779;29;20436;-77
2022/07/01 03:33:07;;;;;;;0.00;0.00;;;20.60;99.90;;;;;;4940766;29;20455;-75
2022/07/01 03:35:39;;;;;;;0.00;0.00;;;20.70;99.90;;;;;;4942526;29;20447;-76
2022/07/01 03:38:08;;;;;;;0.00;0.00;;;20.70;99.90;;;;;;4941864;29;21008;-76
2022/07/01 03:40:36;;;;;;;0.00;0.00;;;20.70;99.90;;;;;;4940242;29;20449;-76
2022/07/01 03:43:04;;;;;;;0.00;0.00;;;20.60;99.90;;;;;;4939869;28;20957;-76
2022/07/01 03:45:32;;;;;;;0.00;0.00;;;20.60;99.90;;;;;;4939955;28;20479;-76
2022/07/01 03:48:02;;;;;;;0.00;0.00;;;20.60;99.90;;;;;;4939535;29;20927;-76
2022/07/01 03:50:29;;;;;;;0.00;0.00;;;20.60;99.90;;;;;;4940317;29;20445;-77
2022/07/01 03:55:44;;;;;;;0.00;0.00;;;20.60;99.90;;;;;;4941919;29;20730;-77
2022/07/01 03:58:12;;;;;;;0.00;0.00;;;20.60;99.90;;;;;;4943341;28;20552;-76
2022/07/01 04:00:40;;;;;;;0.00;0.00;;;20.60;99.90;;;;;;4942759;29;20449;-76
2022/07/01 04:03:08;;;;;;;0.00;0.00;;;20.60;99.90;;;;;;4943467;29;20533;-73
2022/07/01 04:05:37;;;;;;;0.00;0.00;;;20.60;99.90;;;;;;4943375;29;20764;-73
2022/07/01 04:08:08;;;;;;;0.00;0.00;;;20.70;99.90;;;;;;4943048;28;21114;-74
2022/07/01 04:10:36;;;;;;;0.00;0.00;;;20.70;99.90;;;;;;4944052;29;20747;-77
2022/07/01 04:13:06;;;;;;;0.00;0.00;;;20.60;99.90;;;;;;4943486;29;20618;-74
2022/07/01 04:15:54;;;;;;;0.00;0.00;;;20.70;99.90;;;;;;4938692;29;20460;-76
2022/07/01 04:18:22;;;;;;;0.00;0.00;;;20.60;99.90;;;;;;4923537;29;20957;-75
2022/07/01 04:23:33;;;;;;;0.00;0.00;;;20.50;99.90;;;;;;4923285;29;20455;-74
2022/07/01 04:26:01;;;;;;;0.00;0.00;;;20.50;99.90;;;;;;4923784;29;20512;-78
2022/07/01 04:28:51;;;;;;;0.00;0.00;;;20.40;99.90;;;;;;4924781;29;20447;-78
2022/07/01 04:31:19;;;;;;;0.00;0.00;;;20.30;99.90;;;;;;4924007;29;20475;-75
2022/07/01 04:33:49;;;;;;;0.00;0.00;;;20.30;99.90;;;;;;4924055;29;20535;-75
2022/07/01 04:36:16;;;;;;;0.00;0.00;;;20.20;99.90;;;;;;4923827;29;20472;-73
2022/07/01 04:38:45;;;;;;;0.00;0.00;;;20.30;99.90;;;;;;4930514;29;20455;-87
2022/07/01 04:43:59;;;;;;;0.00;0.00;;;20.10;99.90;;;;;;4947550;29;20746;-86
2022/07/01 04:46:27;;;;;;;0.00;0.00;;;20.00;99.90;;;;;;4943331;29;20704;-73
2022/07/01 04:48:55;;;;;;;0.00;0.00;;;19.90;99.90;;;;;;4935880;29;20779;-78
2022/07/01 04:51:23;;;;;;;0.00;0.00;;;19.80;99.90;;;;;;4924203;29;20438;-76
2022/07/01 04:53:51;;;;;;;0.00;0.00;;;19.80;99.90;;;;;;4924895;29;20809;-76
2022/07/01 04:56:20;;;;;;;0.00;0.00;;;19.80;99.90;;;;;;4923962;29;20491;-76
2022/07/01 04:58:48;;;;;;;0.00;0.00;;;19.90;99.90;;;;;;4924560;29;20743;-77
2022/07/01 05:01:17;;;;;;;0.00;0.00;;;19.90;99.90;;;;;;4928052;28;20984;-76
2022/07/01 05:03:45;;;;;;;0.00;0.00;;;19.90;99.90;;;;;;4943405;29;20441;-77
2022/07/01 05:06:13;;;;;;;0.00;0.00;;;19.80;99.90;;;;;;4944106;29;20460;-78
2022/07/01 05:08:41;;;;;;;0.00;0.00;;;19.80;99.90;;;;;;4947321;28;20462;-76
2022/07/01 05:11:09;;;;;;;0.00;0.00;;;19.70;99.90;;;;;;4943883;28;20455;-77
2022/07/01 05:13:37;;;;;;;0.00;0.00;;;19.70;99.90;;;;;;4941705;29;20494;-78
2022/07/01 05:16:06;;;;;;;0.00;0.00;;;19.60;99.90;;;;;;4926152;29;20518;-76
2022/07/01 05:24:07;;;;;;;0.00;0.00;;;19.20;99.90;;;;;;4924895;29;20465;-77
2022/07/01 05:26:35;;;;;;;0.00;0.00;;;19.00;99.90;;;;;;4926018;29;20461;-76
2022/07/01 05:29:03;;;;;;;0.00;0.00;;;19.00;99.90;;;;;;4924851;28;20556;-77
2022/07/01 05:31:31;;;;;;;0.00;0.00;;;18.90;99.90;;;;;;4925221;29;20653;-76
2022/07/01 05:34:00;;;;;;;0.00;0.00;;;18.80;99.90;;;;;;4925038;29;20573;-77
2022/07/01 05:36:32;;;;;;;0.00;0.00;;;18.70;99.90;;;;;;4928300;29;20461;-76
2022/07/01 05:39:00;;;;;;;0.00;0.00;;;18.60;99.90;;;;;;4947978;28;20507;-78
2022/07/01 05:41:27;;;;;;;0.00;0.00;;;18.50;99.90;;;;;;4950461;29;20503;-78
2022/07/01 05:43:56;;;;;;;0.00;0.00;;;18.40;99.90;;;;;;4949892;29;20438;-77
2022/07/01 05:46:23;;;;;;;0.00;0.00;;;18.40;99.90;;;;;;4944753;29;21013;-74
2022/07/01 05:48:51;;;;;;;0.00;0.00;;;18.30;99.90;;;;;;4936887;28;20668;-75
2022/07/01 05:51:20;;;;;;;0.00;0.00;;;18.30;99.90;;;;;;4938460;29;20462;-74
2022/07/01 05:53:48;;;;;;;0.00;0.00;;;18.30;99.90;;;;;;4930810;29;20484;-75
2022/07/01 05:56:16;;;;;;;0.00;0.00;;;18.20;99.90;;;;;;4945663;29;20487;-79
2022/07/01 05:58:44;;;;;;;0.00;0.00;;;18.20;99.90;;;;;;4940239;29;20485;-77
2022/07/01 06:01:12;;;;;;;0.00;0.00;;;18.10;99.90;;;;;;4952615;29;20471;-79
2022/07/01 06:03:40;;;;;;;0.00;0.00;;;18.00;99.90;;;;;;4940747;29;20471;-79
2022/07/01 06:06:08;;;;;;;0.00;0.00;;;18.00;99.90;;;;;;4943160;29;20530;-71
2022/07/01 06:08:37;;;;;;;0.00;0.00;;;17.90;99.90;;;;;;4941698;29;20549;-78
2022/07/01 06:11:05;;;;;;;0.00;0.00;;;17.90;99.90;;;;;;4942558;29;21001;-78
2022/07/01 06:13:33;;;;;;;0.00;0.00;;;17.80;99.90;;;;;;4925586;29;20515;-78
2022/07/01 06:16:00;;;;;;;0.00;0.00;;;17.80;99.90;;;;;;4931279;29;20497;-75
2022/07/01 06:18:29;;;;;;;0.00;0.00;;;17.80;99.90;;;;;;4942563;29;20463;-80
2022/07/01 06:20:56;;;;;;;0.00;0.00;;;17.90;99.90;;;;;;4927485;29;20444;-79
2022/07/01 06:23:24;;;;;;;0.00;0.00;;;17.90;99.90;;;;;;4944007;28;20485;-79
2022/07/01 06:25:53;;;;;;;0.00;0.00;;;17.80;99.90;;;;;;4944212;29;20542;-76
2022/07/01 06:28:21;;;;;;;0.00;0.00;;;17.70;99.90;;;;;;4929448;29;20562;-77
2022/07/01 06:30:49;;;;;;;0.00;0.00;;;17.60;99.90;;;;;;4931509;29;20444;-77
2022/07/01 06:33:17;;;;;;;0.00;0.00;;;17.60;99.90;;;;;;4927584;29;20492;-78
2022/07/01 06:35:44;;;;;;;0.00;0.00;;;17.60;99.90;;;;;;4937454;29;20455;-76
2022/07/01 06:38:12;;;;;;;0.00;0.00;;;17.60;99.90;;;;;;4937919;29;20482;-77
2022/07/01 06:40:40;;;;;;;0.00;0.00;;;17.50;99.90;;;;;;4925232;29;21096;-76
2022/07/01 06:43:09;;;;;;;0.00;0.00;;;17.50;99.90;;;;;;4939724;29;20452;-75
2022/07/01 06:45:37;;;;;;;0.00;0.00;;;17.50;99.90;;;;;;4941197;29;20459;-74
2022/07/01 06:48:06;;;;;;;0.00;0.00;;;17.60;99.90;;;;;;4940018;29;20471;-75
2022/07/01 06:50:34;;;;;;;0.00;0.00;;;17.60;99.90;;;;;;4940678;29;20878;-76
2022/07/01 06:53:02;;;;;;;0.00;0.00;;;17.50;99.90;;;;;;4939737;29;20568;-76
2022/07/01 06:55:30;;;;;;;0.00;0.00;;;17.50;99.90;;;;;;4940417;29;20446;-75
2022/07/01 06:57:57;;;;;;;0.00;0.00;;;17.50;99.90;;;;;;4940114;29;21016;-76
2022/07/01 07:00:27;;;;;;;0.00;0.00;;;17.40;99.90;;;;;;4940224;29;20858;-76
2022/07/01 07:02:55;;;;;;;0.00;0.00;;;17.30;99.90;;;;;;4940190;29;20445;-76
2022/07/01 07:05:23;;;;;;;0.00;0.00;;;17.30;99.90;;;;;;4931772;28;20774;-75
2022/07/01 07:07:51;;;;;;;0.00;0.00;;;17.30;99.90;;;;;;4937469;29;20554;-76
2022/07/01 07:10:22;;;;;;;0.00;0.00;;;17.30;99.90;;;;;;4925239;29;20864;-76
2022/07/01 07:12:50;;;;;;;0.00;0.00;;;17.40;99.90;;;;;;4932081;29;20506;-76
2022/07/01 07:15:19;;;;;;;0.00;0.00;;;17.40;99.90;;;;;;4938276;29;20451;-76
2022/07/01 07:17:54;;;;;;;0.00;0.00;;;17.40;99.90;;;;;;4928326;29;20526;-76
2022/07/01 07:20:21;;;;;;;0.00;0.00;;;17.50;99.90;;;;;;4928654;29;20451;-76
2022/07/01 07:22:49;;;;;;;0.00;0.00;;;17.60;99.90;;;;;;4937881;29;20537;-76
2022/07/01 07:25:17;;;;;;;0.00;0.00;;;17.60;99.90;;;;;;4941152;29;20462;-81
2022/07/01 07:27:46;;;;;;;0.00;0.00;;;17.70;99.90;;;;;;4939138;29;20483;-74
2022/07/01 07:30:14;;;;;;;0.00;0.00;;;17.70;99.90;;;;;;4932170;29;20558;-77
2022/07/01 07:32:42;;;;;;;0.00;0.00;;;17.70;99.90;;;;;;4932168;28;20978;-74
2022/07/01 07:35:12;;;;;;;0.00;0.00;;;17.70;99.90;;;;;;4926384;29;20558;-75
2022/07/01 07:37:41;;;;;;;0.00;0.00;;;17.70;99.90;;;;;;4926836;29;20477;-76
2022/07/01 07:40:12;;;;;;;0.00;0.00;;;17.60;99.90;;;;;;4929080;29;20498;-75
2022/07/01 07:42:40;;;;;;;0.00;0.00;;;17.60;99.90;;;;;;4926145;29;20513;-75
2022/07/01 07:45:11;;;;;;;0.00;0.00;;;17.50;99.90;;;;;;4926961;29;21113;-75
2022/07/01 07:47:48;;;;;;;0.00;0.00;;;17.50;99.90;;;;;;4925023;29;20485;-76
2022/07/01 07:50:17;;;;;;;0.00;0.00;;;17.40;99.90;;;;;;4925541;29;20564;-76
2022/07/01 07:52:45;;;;;;;0.00;0.00;;;17.30;99.90;;;;;;4925793;29;20542;-75
2022/07/01 07:55:13;;;;;;;0.00;0.00;;;17.30;99.90;;;;;;4928401;29;20767;-74
2022/07/01 07:57:42;;;;;;;0.00;0.00;;;17.30;99.90;;;;;;4937504;29;20815;-73
2022/07/01 08:00:12;;;;;;;0.00;0.00;;;17.30;99.90;;;;;;4933926;29;20584;-74
2022/07/01 08:02:41;;;;;;;0.00;0.00;;;17.30;99.90;;;;;;4944846;29;20545;-75
2022/07/01 08:05:10;;;;;;;0.00;0.00;;;17.30;99.90;;;;;;4944131;29;20503;-76
2022/07/01 08:07:41;;;;;;;0.00;0.00;;;17.40;99.90;;;;;;4943527;29;20474;-75
2022/07/01 08:10:13;;;;;;;0.00;0.00;;;17.40;99.90;;;;;;4944311;29;20439;-76
2022/07/01 08:12:42;;;;;;;0.00;0.00;;;17.40;99.90;;;;;;4944429;29;20490;-75
2022/07/01 08:15:11;;;;;;;0.00;0.00;;;17.40;99.90;;;;;;4947353;29;20557;-75
2022/07/01 08:17:39;;;;;;;0.00;0.00;;;17.30;99.90;;;;;;4940918;29;20491;-74
2022/07/01 08:20:08;;;;;;;0.00;0.00;;;17.20;99.90;;;;;;4936013;29;20454;-76
2022/07/01 08:22:36;;;;;;;0.00;0.00;;;17.20;99.90;;;;;;4930055;29;20461;-77
2022/07/01 08:25:06;;;;;;;0.00;0.00;;;17.30;99.90;;;;;;4926800;29;20475;-76
2022/07/01 08:27:34;;;;;;;0.00;0.00;;;17.30;99.90;;;;;;4932042;29;20853;-76
2022/07/01 08:30:02;;;;;;;0.00;0.00;;;17.40;99.90;;;;;;4923897;29;20446;-76
2022/07/01 08:32:30;;;;;;;0.00;0.00;;;17.40;99.90;;;;;;4923310;29;20485;-75
2022/07/01 08:34:58;;;;;;;0.00;0.00;;;17.40;99.90;;;;;;4924972;29;21069;-77
2022/07/01 08:37:26;;;;;;;0.00;0.00;;;17.40;99.90;;;;;;4927011;29;20999;-77
2022/07/01 08:39:54;;;;;;;0.00;0.00;;;17.50;99.90;;;;;;4923114;29;20800;-76
2022/07/01 08:42:23;;;;;;;0.00;0.00;;;17.40;99.90;;;;;;4923214;29;20913;-77
2022/07/01 08:44:51;;;;;;;0.00;0.00;;;17.50;99.90;;;;;;4922065;29;20448;-76
2022/07/01 08:47:20;;;;;;;0.00;0.00;;;17.50;99.90;;;;;;4923843;29;20482;-75
2022/07/01 08:49:47;;;;;;;0.00;0.00;;;17.60;99.90;;;;;;4924235;29;20449;-76
2022/07/01 08:52:16;;;;;;;0.00;0.00;;;17.80;99.90;;;;;;4923603;29;20451;-75
2022/07/01 08:54:43;;;;;;;0.00;0.00;;;17.80;99.90;;;;;;4924183;29;20811;-75
2022/07/01 08:57:11;;;;;;;0.00;0.00;;;17.90;99.90;;;;;;4932268;29;20490;-76
2022/07/01 08:59:40;;;;;;;0.00;0.00;;;17.90;99.90;;;;;;4929706;29;20985;-74
2022/07/01 09:02:08;;;;;;;0.00;0.00;;;17.90;99.90;;;;;;4931922;28;20546;-73
2022/07/01 09:04:36;;;;;;;0.00;0.00;;;17.90;99.90;;;;;;4933247;29;20530;-76
2022/07/01 09:07:07;;;;;;;0.00;0.00;;;17.90;99.90;;;;;;4927322;29;20598;-75
2022/07/01 09:09:37;;;;;;;0.00;0.00;;;18.00;99.90;;;;;;4933699;29;20464;-74
2022/07/01 09:12:06;;;;;;;0.00;0.00;;;18.00;99.90;;;;;;4929539;29;20487;-74
2022/07/01 09:14:35;;;;;;;0.00;0.00;;;18.00;99.90;;;;;;4933750;29;20545;-76
2022/07/01 09:17:07;;;;;;;0.00;0.00;;;18.00;99.90;;;;;;4932576;29;20604;-79
2022/07/01 09:19:38;;;;;;;0.00;0.00;;;18.00;99.90;;;;;;4929322;29;20824;-74
2022/07/01 09:22:17;;;;;;;0.00;0.00;;;18.00;99.90;;;;;;4935474;29;20557;-73
2022/07/01 09:24:45;;;;;;;0.00;0.00;;;18.10;99.90;;;;;;4924203;29;20882;-75
2022/07/01 09:27:17;;;;;;;0.00;0.00;;;18.00;99.90;;;;;;4922188;29;20909;-76
2022/07/01 09:29:47;;;;;;;0.00;0.00;;;18.00;99.90;;;;;;4922154;29;20487;-73
2022/07/01 09:32:21;;;;;;;0.00;0.00;;;17.90;99.90;;;;;;4922197;29;20448;-74
2022/07/01 09:34:52;;;;;;;0.00;0.00;;;18.00;99.90;;;;;;4922820;29;20483;-74
2022/07/01 09:37:25;;;;;;;0.00;0.00;;;18.00;99.90;;;;;;4938732;28;20500;-73
2022/07/01 09:39:55;;;;;;;0.00;0.00;;;18.10;99.90;;;;;;4939203;29;20546;-74
2022/07/01 09:42:24;;;;;;;0.00;0.00;;;18.10;99.90;;;;;;4936005;29;20451;-75
2022/07/01 09:44:53;;;;;;;0.00;0.00;;;18.10;99.90;;;;;;4937041;28;20475;-74
2022/07/01 09:47:31;;;;;;;0.00;0.00;;;18.10;99.90;;;;;;4931559;28;20476;-74
2022/07/01 09:49:59;;;;;;;0.00;0.00;;;18.10;99.90;;;;;;4930866;29;20472;-79
2022/07/01 09:52:28;;;;;;;0.00;0.00;;;18.00;99.90;;;;;;4934352;29;21019;-77
2022/07/01 09:55:05;;;;;;;0.00;0.00;;;18.00;99.90;;;;;;4935012;28;20483;-77
2022/07/01 09:57:33;;;;;;;0.00;0.00;;;18.00;99.90;;;;;;4942427;29;20482;-76
2022/07/01 10:00:02;;;;;;;0.00;0.00;;;18.10;99.90;;;;;;4937372;29;20475;-76
2022/07/01 10:02:33;;;;;;;0.00;0.00;;;18.20;99.90;;;;;;4941861;29;20566;-76
2022/07/01 10:05:07;;;;;;;0.00;0.00;;;18.30;99.90;;;;;;4938440;29;20458;-77
2022/07/01 10:07:46;;;;;;;0.00;0.00;;;18.40;99.90;;;;;;4924844;28;20490;-75
2022/07/01 10:10:29;;;;;;;0.00;0.00;;;18.40;99.90;;;;;;4941214;29;20453;-77
2022/07/01 10:12:57;;;;;;;0.00;0.00;;;18.40;99.90;;;;;;4925804;29;20581;-77
2022/07/01 10:15:26;;;;;;;0.00;0.00;;;18.40;99.90;;;;;;4922703;29;21106;-77
2022/07/01 10:17:55;;;;;;;0.00;0.00;;;18.40;99.90;;;;;;4924110;29;20509;-77
2022/07/01 10:20:26;;;;;;;0.00;0.00;;;18.30;99.90;;;;;;4930778;29;20545;-76
2022/07/01 10:23:01;;;;;;;0.00;0.00;;;18.20;99.90;;;;;;4936485;29;20472;-76
2022/07/01 10:25:48;;;;;;;0.00;0.00;;;18.20;99.90;;;;;;4942498;29;20473;-77
2022/07/01 10:28:27;;;;;;;0.00;0.00;;;18.10;99.90;;;;;;4942061;29;20558;-77
2022/07/01 10:30:59;;;;;;;0.00;0.00;;;18.00;99.90;;;;;;4941841;29;20470;-77
2022/07/01 10:33:31;;;;;;;0.00;0.00;;;18.10;99.90;;;;;;4940055;28;20570;-75
2022/07/01 10:36:11;;;;;;;0.00;0.00;;;18.10;99.90;;;;;;4950049;29;20488;-76
2022/07/01 10:39:22;;;;;;;0.00;0.00;;;18.10;99.90;;;;;;4943346;28;20522;-75
2022/07/01 10:42:01;;;;;;;0.00;0.00;;;18.10;99.90;;;;;;4927879;29;20466;-75
2022/07/01 10:45:01;;;;;;;0.00;0.00;;;18.10;99.90;;;;;;4940608;29;20475;-74
2022/07/01 10:47:29;;;;;;;0.00;0.00;;;18.20;99.90;;;;;;4939909;29;20483;-78
2022/07/01 10:50:03;;;;;;;0.00;0.00;;;18.10;99.90;;;;;;4931671;29;20458;-76
2022/07/01 10:52:33;;;;;;;0.00;0.00;;;18.10;99.90;;;;;;4926005;29;20452;-76
2022/07/01 10:55:02;;;;;;;0.00;0.00;;;18.20;99.90;;;;;;4920052;29;21168;-77
2022/07/01 10:57:33;;;;;;;0.00;0.00;;;18.20;99.90;;;;;;4926008;29;20478;-78
2022/07/01 11:00:31;;;;;;;0.00;0.00;;;18.10;99.90;;;;;;4941142;29;20452;-74
2022/07/01 11:03:20;;;;;;;0.00;0.00;;;18.20;99.90;;;;;;4940235;29;20548;-74
2022/07/01 11:05:53;;;;;;;0.00;0.00;;;18.20;99.90;;;;;;4928289;28;20490;-77
2022/07/01 11:08:21;;;;;;;0.00;0.00;;;18.20;99.90;;;;;;4940001;29;20476;-76
2022/07/01 11:11:01;;;;;;;0.00;0.00;;;18.30;99.90;;;;;;4941570;29;20735;-79
2022/07/01 11:13:30;;;;;;;0.00;0.00;;;18.40;99.90;;;;;;4942077;29;20544;-80
2022/07/01 11:15:58;;;;;;;0.00;0.00;;;18.50;99.90;;;;;;4932706;29;20484;-77
2022/07/01 11:18:26;;;;;;;0.00;0.00;;;18.60;99.90;;;;;;4923395;29;20457;-77
2022/07/01 11:21:06;;;;;;;0.00;0.00;;;18.60;99.90;;;;;;4927612;29;21015;-77
2022/07/01 11:23:34;;;;;;;0.00;0.00;;;18.70;99.90;;;;;;4945508;29;21055;-76
2022/07/01 11:26:08;;;;;;;0.00;0.00;;;18.70;99.90;;;;;;4935260;29;20703;-75
2022/07/01 11:28:41;;;;;;;0.00;0.00;;;18.80;99.90;;;;;;4930574;29;20497;-77
2022/07/01 11:31:09;;;;;;;0.00;0.00;;;18.80;99.90;;;;;;4923146;29;21024;-75
2022/07/01 11:33:39;;;;;;;0.00;0.00;;;18.90;99.90;;;;;;4926030;29;20445;-77
2022/07/01 11:41:43;;;;;;;0.00;0.00;;;19.30;99.90;;;;;;4940046;29;20455;-77
2022/07/01 11:44:11;;;;;;;0.00;0.00;;;19.40;99.90;;;;;;4939689;29;20528;-77
2022/07/01 11:46:39;;;;;;;0.00;0.00;;;19.40;99.90;;;;;;4939441;29;20469;-76
2022/07/01 11:49:13;;;;;;;0.00;0.00;;;19.50;99.90;;;;;;4940372;29;20964;-77
2022/07/01 11:51:43;;;;;;;0.00;0.00;;;19.50;99.90;;;;;;4939710;29;20491;-77
2022/07/01 11:54:21;;;;;;;0.00;0.00;;;19.50;99.90;;;;;;4939983;29;20444;-76
2022/07/01 11:56:50;;;;;;;0.00;0.00;;;19.50;99.90;;;;;;4939312;29;20503;-76
2022/07/01 11:59:19;;;;;;;0.00;0.00;;;19.40;99.90;;;;;;4938502;28;20517;-77
2022/07/01 12:01:53;;;;;;;0.00;0.00;;;19.30;99.90;;;;;;4939369;29;20439;-76
2022/07/01 12:04:22;;;;;;;0.00;0.00;;;19.30;99.90;;;;;;4940144;29;20436;-76
2022/07/01 12:06:52;;;;;;;0.00;0.00;;;19.30;99.90;;;;;;4940248;29;20468;-74
2022/07/01 12:09:20;;;;;;;0.00;0.00;;;19.30;99.90;;;;;;4940201;29;20445;-78
2022/07/01 12:11:51;;;;;;;0.00;0.00;;;19.20;99.90;;;;;;4940549;29;20445;-77
2022/07/01 12:14:23;;;;;;;0.00;0.00;;;19.20;99.90;;;;;;4940669;29;20460;-77
2022/07/01 12:16:53;;;;;;;0.00;0.00;;;19.20;99.90;;;;;;4940750;29;20569;-77
2022/07/01 12:19:27;;;;;;;0.00;0.00;;;19.20;99.90;;;;;;4936233;28;20452;-77
2022/07/01 12:21:58;;;;;;;0.00;0.00;;;19.20;99.90;;;;;;4941880;28;20544;-77
2022/07/01 12:24:27;;;;;;;0.00;0.00;;;19.20;99.90;;;;;;4943368;29;21167;-78
2022/07/01 12:27:05;;;;;;;0.00;0.00;;;19.10;99.90;;;;;;4940956;29;20492;-78
2022/07/01 12:29:52;;;;;;;0.00;0.00;;;19.10;99.90;;;;;;4943922;28;21065;-77
2022/07/01 12:32:25;;;;;;;0.00;0.00;;;19.20;99.90;;;;;;4951962;29;20723;-78
2022/07/01 12:34:55;;;;;;;0.00;0.00;;;19.20;99.90;;;;;;4951097;29;20436;-76
2022/07/01 12:37:30;;;;;;;0.00;0.00;;;19.20;99.90;;;;;;4948196;29;20481;-77
2022/07/01 12:40:00;;;;;;;0.00;0.00;;;19.30;99.90;;;;;;4944083;29;20822;-77
2022/07/01 12:42:30;;;;;;;0.00;0.00;;;19.20;99.90;;;;;;4944686;29;20458;-78
2022/07/01 12:44:59;;;;;;;0.00;0.00;;;19.30;99.90;;;;;;4948440;29;20452;-78
2022/07/01 12:47:28;;;;;;;0.00;0.00;;;19.30;99.90;;;;;;4945874;29;20459;-77
2022/07/01 12:50:15;;;;;;;0.00;0.00;;;19.40;99.90;;;;;;4943497;29;20459;-78
2022/07/01 12:53:01;;;;;;;0.00;0.00;;;19.50;99.90;;;;;;4943835;29;20524;-78
2022/07/01 12:55:32;;;;;;;0.00;0.00;;;19.80;99.90;;;;;;4942441;29;20443;-75
2022/07/01 12:58:00;;;;;;;0.00;0.00;;;20.10;99.90;;;;;;4941830;29;20580;-75
2022/07/01 13:00:30;;;;;;;0.00;0.00;;;20.30;99.90;;;;;;4942391;29;20746;-75
2022/07/01 13:03:00;;;;;;;0.00;0.00;;;20.40;99.90;;;;;;4940934;29;20467;-77
2022/07/01 13:05:30;;;;;;;0.00;0.00;;;20.50;99.90;;;;;;4943422;29;20460;-77
2022/07/01 13:07:59;;;;;;;0.00;0.00;;;20.70;99.90;;;;;;4943444;28;20489;-77
2022/07/01 13:10:28;;;;;;;0.00;0.00;;;20.90;99.90;;;;;;4936538;29;20458;-77
2022/07/01 13:12:56;;;;;;;0.00;0.00;;;21.00;99.90;;;;;;4935655;29;20544;-79
2022/07/01 13:15:24;;;;;;;0.00;0.00;;;21.10;99.90;;;;;;4928209;29;20537;-78
2022/07/01 13:17:52;;;;;;;0.00;0.00;;;21.10;99.90;;;;;;4926093;29;21092;-76
2022/07/01 13:20:20;;;;;;;0.00;0.00;;;21.10;99.90;;;;;;4926094;29;20716;-79
2022/07/01 13:22:49;;;;;;;0.00;0.00;;;21.20;99.90;;;;;;4924469;29;20465;-75
2022/07/01 13:25:19;;;;;;;0.00;0.00;;;21.30;99.90;;;;;;4932416;29;21055;-78
2022/07/01 13:27:47;;;;;;;0.00;0.00;;;21.30;99.90;;;;;;4936692;29;20487;-77